Time;durP1;ratioP1;P1;durP2;ratioP2;P2;SDS_P1;SDS_P2;PMS_P1;PMS_P2;Temp;Humidity;BMP_temperature;BMP_pressure;BME280_temperature;BME280_humidity;BME280_pressure;Samples;Min_cycle;Max_cycle;Signal;HPM_P1;HPM_P2
2022/07/16 00:01:28;;;;;;;13.52;2.25;;;;;;;22.37;57.72;99773.84;10337945;28;20046;-71
2022/07/16 00:06:29;;;;;;;8.43;2.67;;;;;;;22.14;58.46;99756.88;10338791;28;20407;-71
2022/07/16 00:11:30;;;;;;;7.13;2.38;;;;;;;23.05;58.92;99912.19;10338428;28;20038;-71
2022/07/16 00:16:31;;;;;;;10.02;2.35;;;;;;;23.04;59.47;99902.44;10337539;28;20042;-71
2022/07/16 00:21:32;;;;;;;10.77;2.38;;;;;;;22.40;59.92;99805.81;10337904;28;20046;-71
2022/07/16 00:26:33;;;;;;;13.25;3.10;;;;;;;23.11;60.42;99905.72;10337240;28;20046;-71
2022/07/16 00:31:35;;;;;;;10.75;2.58;;;;;;;23.15;60.19;99896.78;10337700;28;20034;-71
2022/07/16 00:36:38;;;;;;;14.15;2.60;;;;;;;23.22;59.35;99907.41;10337330;28;20058;-71
2022/07/16 00:41:40;;;;;;;8.27;2.30;;;;;;;22.66;59.44;99806.81;10368638;28;20510;-71
2022/07/16 00:46:43;;;;;;;6.72;2.30;;;;;;;23.30;58.98;99904.19;10336695;28;20049;-71
2022/07/16 00:51:47;;;;;;;11.02;2.58;;;;;;;23.37;59.27;99925.66;10337357;28;20399;-71
2022/07/16 00:56:48;;;;;;;6.45;1.92;;;;;;;23.43;58.72;99920.00;10368212;28;20046;-71
2022/07/16 01:01:49;;;;;;;58.72;5.15;;;;;;;23.48;59.18;99913.75;10336431;28;20042;-71
2022/07/16 01:06:50;;;;;;;53.63;5.82;;;;;;;23.24;59.31;99872.72;10336340;28;20454;-71
2022/07/16 01:11:52;;;;;;;183.43;12.02;;;;;;;23.39;59.58;99909.94;10335545;28;20092;-71
2022/07/16 01:16:53;;;;;;;18.77;2.92;;;;;;;23.16;58.92;99865.91;10335621;28;20046;-71
2022/07/16 01:21:53;;;;;;;95.25;7.05;;;;;;;23.49;59.85;99920.84;10335123;28;20042;-71
2022/07/16 01:26:54;;;;;;;194.32;14.20;;;;;;;23.45;59.63;99915.13;10332982;28;20385;-71
2022/07/16 01:31:55;;;;;;;23.33;4.68;;;;;;;23.48;58.35;99927.31;10332199;28;20042;-71
2022/07/16 01:37:05;;;;;;;60.60;4.95;;;;;;;22.87;57.84;99843.78;10335385;28;20070;-71
2022/07/16 01:42:08;;;;;;;20.52;3.33;;;;;;;23.52;57.40;99933.88;10334983;28;20039;-71
2022/07/16 01:47:10;;;;;;;35.70;3.70;;;;;;;23.58;57.22;99938.22;10334726;28;20039;-71
2022/07/16 01:52:18;;;;;;;73.07;5.30;;;;;;;23.55;57.66;99943.38;10334489;28;20113;-71
2022/07/16 01:57:20;;;;;;;12.65;3.00;;;;;;;23.58;57.17;99945.56;10365212;28;20133;-71
2022/07/16 02:02:21;;;;;;;40.05;4.30;;;;;;;23.59;56.77;99950.69;10364324;28;20038;-71
2022/07/16 02:07:21;;;;;;;48.38;4.55;;;;;;;23.61;56.94;99959.41;10334776;28;20042;-71
2022/07/16 02:12:22;;;;;;;31.05;3.28;;;;;;;23.46;56.82;99921.38;10333639;28;20042;-71
2022/07/16 02:17:24;;;;;;;29.33;3.85;;;;;;;23.03;56.52;99847.41;10333430;28;20041;-71
2022/07/16 02:22:24;;;;;;;29.13;4.10;;;;;;;23.58;56.73;99935.53;10332856;28;20046;-72
2022/07/16 02:27:25;;;;;;;53.92;4.85;;;;;;;23.68;56.58;99943.69;10332603;28;20046;-72
2022/07/16 02:32:27;;;;;;;13.35;3.20;;;;;;;23.72;56.67;99954.03;10364560;28;20080;-72
2022/07/16 02:37:28;;;;;;;39.47;5.50;;;;;;;23.77;56.57;99943.22;10332839;28;20415;-72
2022/07/16 02:42:29;;;;;;;31.33;4.35;;;;;;;23.85;56.11;99940.81;10331941;28;20042;-71
2022/07/16 02:47:30;;;;;;;20.73;5.22;;;;;;;23.84;55.70;99924.78;10331189;28;20042;-71
2022/07/16 02:52:31;;;;;;;34.00;5.68;;;;;;;24.17;56.75;99944.44;10333305;28;20045;-72
2022/07/16 02:57:32;;;;;;;38.40;14.65;;;;;;;24.24;57.50;99945.00;10332155;28;20045;-71
2022/07/16 03:02:33;;;;;;;39.33;16.92;;;;;;;24.24;58.53;99945.00;10331578;28;20411;-72
2022/07/16 03:07:34;;;;;;;68.53;10.70;;;;;;;23.69;58.31;99861.31;10331542;28;20042;-71
2022/07/16 03:12:35;;;;;;;26.15;4.40;;;;;;;24.30;57.65;99954.78;10332909;28;20068;-71
2022/07/16 03:17:36;;;;;;;22.23;3.55;;;;;;;24.38;56.97;99949.66;10331041;28;20133;-71
2022/07/16 03:22:36;;;;;;;72.22;6.60;;;;;;;24.58;56.84;99948.06;10331176;28;20070;-71
2022/07/16 03:27:37;;;;;;;13.93;3.30;;;;;;;24.59;55.63;99917.13;10331475;28;20046;-71
2022/07/16 03:32:38;;;;;;;19.25;4.05;;;;;;;24.93;54.62;99955.41;10332470;28;20129;-71
2022/07/16 03:42:59;;;;;;;27.88;5.85;;;;;;;25.20;52.87;99919.00;10330723;28;20133;-71
2022/07/16 03:48:00;;;;;;;19.23;3.55;;;;;;;25.49;51.22;99925.44;10330989;28;20133;-71
2022/07/16 03:53:01;;;;;;;11.95;2.70;;;;;;;25.66;48.81;99910.69;10330449;28;20129;-71
2022/07/16 03:58:02;;;;;;;22.00;3.28;;;;;;;25.87;48.97;99912.25;10330931;28;20057;-72
2022/07/16 04:03:02;;;;;;;14.77;2.38;;;;;;;26.28;47.75;99943.88;10331258;28;20073;-71
2022/07/16 04:08:04;;;;;;;30.55;3.22;;;;;;;26.42;47.49;99928.53;10362901;28;20402;-71
2022/07/16 04:13:04;;;;;;;46.67;3.38;;;;;;;26.44;47.42;99922.78;10330205;28;20557;-71
2022/07/16 04:18:06;;;;;;;6.90;1.98;;;;;;;26.39;47.31;99907.31;10329896;28;20093;-70
2022/07/16 04:23:07;;;;;;;30.30;4.00;;;;;;;26.70;47.34;99934.34;10334132;28;20503;-72
2022/07/16 04:28:08;;;;;;;17.15;2.60;;;;;;;26.84;47.08;99933.41;10337627;28;20039;-71
2022/07/16 04:33:08;;;;;;;12.88;2.35;;;;;;;26.63;47.67;99899.25;10334145;28;20041;-72
2022/07/16 04:38:09;;;;;;;13.95;1.70;;;;;;;26.66;48.03;99917.75;10336907;28;20506;-70
2022/07/16 04:43:10;;;;;;;12.00;1.60;;;;;;;25.62;48.39;99730.91;10336710;28;20145;-69
2022/07/16 04:48:11;;;;;;;10.52;1.88;;;;;;;26.32;47.84;99825.91;10336334;28;20081;-71
2022/07/16 04:53:11;;;;;;;18.05;2.03;;;;;;;27.12;47.82;99909.13;10336824;28;20045;-72
2022/07/16 04:58:12;;;;;;;5.90;1.23;;;;;;;27.51;46.76;99938.19;10335911;28;20038;-71
2022/07/16 05:03:13;;;;;;;10.68;2.25;;;;;;;27.43;46.66;99917.00;10336087;28;20513;-71
2022/07/16 05:08:14;;;;;;;5.18;1.20;;;;;;;27.61;46.85;99908.09;10334882;28;20101;-72
2022/07/16 05:13:15;;;;;;;12.77;1.30;;;;;;;27.86;45.14;99925.25;10336006;28;20494;-72
2022/07/16 05:18:16;;;;;;;4.18;1.10;;;;;;;27.98;44.23;99914.72;10334417;28;20040;-73
2022/07/16 05:23:17;;;;;;;12.85;1.60;;;;;;;28.17;43.75;99907.34;10330210;28;20049;-71
2022/07/16 05:28:17;;;;;;;6.85;2.70;;;;;;;28.44;42.10;99900.41;10329979;28;20046;-72
2022/07/16 05:33:18;;;;;;;8.20;1.48;;;;;;;28.49;41.15;99896.78;10330274;28;20419;-72
2022/07/16 05:38:19;;;;;;;7.95;2.28;;;;;;;28.35;41.34;99853.00;10366464;28;20058;-72
2022/07/16 05:43:20;;;;;;;25.33;2.28;;;;;;;28.69;39.14;99874.59;10334737;28;20486;-72
2022/07/16 05:48:21;;;;;;;6.53;1.30;;;;;;;28.84;38.44;99885.25;10334587;28;20490;-72
2022/07/16 05:53:22;;;;;;;2.97;0.93;;;;;;;28.89;37.54;99876.94;10333472;28;20395;-72
2022/07/16 05:58:22;;;;;;;4.15;0.93;;;;;;;29.15;37.00;99859.28;10331432;28;20080;-70
2022/07/16 06:03:23;;;;;;;3.70;1.20;;;;;;;28.77;37.46;99793.81;10329183;28;20085;-72
2022/07/16 06:08:24;;;;;;;37.40;3.10;;;;;;;29.56;38.66;99868.28;10332281;28;20116;-72
2022/07/16 06:13:25;;;;;;;12.50;2.03;;;;;;;29.78;37.02;99771.75;10331445;28;20066;-71
2022/07/16 06:18:26;;;;;;;5.82;1.65;;;;;;;30.24;37.09;99819.13;10332618;28;20085;-72
2022/07/16 06:23:27;;;;;;;11.35;1.80;;;;;;;30.66;36.95;99838.91;10361862;28;20069;-72
2022/07/16 06:28:28;;;;;;;6.40;2.28;;;;;;;29.61;37.68;99729.69;10333286;28;20403;-72
2022/07/16 06:33:28;;;;;;;10.95;1.70;;;;;;;29.64;38.23;99778.38;10333621;28;20046;-75
2022/07/16 06:38:29;;;;;;;7.50;1.63;;;;;;;29.33;37.96;99722.38;10331439;28;20084;-75
2022/07/16 06:43:30;;;;;;;6.05;1.27;;;;;;;30.18;37.68;99809.41;10331869;28;20486;-76
2022/07/16 06:48:31;;;;;;;34.08;3.25;;;;;;;30.87;38.23;99820.81;10332521;28;20042;-77
2022/07/16 06:53:35;;;;;;;9.40;1.30;;;;;;;30.58;35.28;99706.16;10332597;28;20038;-75
2022/07/16 06:58:36;;;;;;;13.82;1.52;;;;;;;31.60;36.41;99773.72;10332696;28;20038;-76
2022/07/16 07:03:39;;;;;;;12.23;1.58;;;;;;;32.08;36.02;99802.97;10332048;28;20077;-75
2022/07/16 07:08:40;;;;;;;6.63;1.23;;;;;;;30.66;34.77;99645.09;10332032;28;20057;-75
2022/07/16 07:13:40;;;;;;;12.98;1.70;;;;;;;30.78;34.46;99734.94;10331237;28;20387;-75
2022/07/16 07:18:41;;;;;;;15.20;2.47;;;;;;;30.99;35.39;99794.72;10332370;28;20046;-75
2022/07/16 07:23:42;;;;;;;14.32;1.90;;;;;;;30.55;35.40;99736.97;10332222;28;20541;-75
2022/07/16 07:28:44;;;;;;;11.27;2.03;;;;;;;30.89;34.50;99780.16;10327330;28;20047;-80
2022/07/16 07:33:44;;;;;;;12.38;1.90;;;;;;;31.64;33.94;99763.69;10325670;28;20070;-74
2022/07/16 07:38:45;;;;;;;10.48;1.58;;;;;;;31.42;32.40;99654.88;10331805;28;20510;-75
2022/07/16 07:43:47;;;;;;;10.68;1.48;;;;;;;32.39;31.85;99741.47;10330726;28;20414;-78
2022/07/16 07:48:48;;;;;;;20.27;2.20;;;;;;;32.27;32.41;99679.75;10331679;28;20038;-75
2022/07/16 07:53:48;;;;;;;24.88;2.97;;;;;;;33.25;30.93;99745.78;10330426;28;20039;-76
2022/07/16 07:58:49;;;;;;;14.75;2.00;;;;;;;33.29;29.56;99713.69;10335389;28;20096;-78
2022/07/16 08:03:50;;;;;;;21.10;1.88;;;;;;;32.94;30.02;99655.34;10338545;28;20387;-81
2022/07/16 08:08:51;;;;;;;6.35;1.25;;;;;;;33.70;28.88;99727.81;10337620;28;20215;-79
2022/07/16 08:13:52;;;;;;;17.88;1.80;;;;;;;33.11;28.56;99635.94;10338235;28;20038;-79
2022/07/16 08:18:53;;;;;;;8.90;1.50;;;;;;;33.79;28.31;99720.28;10337661;28;20545;-83
2022/07/16 08:29:13;;;;;;;16.88;2.55;;;;;;;34.01;29.25;99700.56;10337317;28;20048;-81
2022/07/16 08:34:14;;;;;;;10.80;1.50;;;;;;;34.16;29.02;99707.41;10337356;28;20042;-87
2022/07/16 08:39:15;;;;;;;21.00;2.57;;;;;;;34.23;29.59;99695.84;10338005;28;20108;-77
2022/07/16 08:44:16;;;;;;;14.82;2.05;;;;;;;33.87;30.05;99606.44;10336748;28;20101;-76
2022/07/16 08:49:19;;;;;;;16.70;2.20;;;;;;;34.40;29.70;99692.84;10337695;28;20093;-77
2022/07/16 08:54:21;;;;;;;7.28;1.65;;;;;;;34.28;29.37;99681.81;10336879;28;20069;-76
2022/07/16 08:59:22;;;;;;;10.00;1.65;;;;;;;34.15;29.69;99653.44;10337158;28;20399;-78
2022/07/16 09:04:23;;;;;;;8.07;1.88;;;;;;;34.61;29.45;99661.63;10336988;28;20049;-78
2022/07/16 09:09:24;;;;;;;11.55;2.38;;;;;;;34.65;29.85;99660.59;10365140;28;20042;-80
2022/07/16 09:14:25;;;;;;;12.10;2.05;;;;;;;34.02;30.58;99542.38;10335559;28;20430;-78
2022/07/16 09:19:28;;;;;;;15.48;2.25;;;;;;;34.70;29.41;99665.06;10335718;28;20057;-79
2022/07/16 09:24:37;;;;;;;7.63;2.10;;;;;;;34.18;29.27;99567.31;10335318;28;20065;-79
2022/07/16 09:29:48;;;;;;;5.53;1.80;;;;;;;34.61;28.46;99618.31;10366963;28;20073;-80
2022/07/16 09:35:09;;;;;;;6.53;2.15;;;;;;;34.94;28.29;99623.66;10335090;28;20046;-77
2022/07/16 09:40:11;;;;;;;7.63;1.77;;;;;;;34.75;29.13;99601.41;10334637;28;20046;-79
2022/07/16 09:45:20;;;;;;;14.80;1.90;;;;;;;34.44;29.32;99528.34;10332701;28;20054;-76
2022/07/16 09:50:21;;;;;;;8.52;1.83;;;;;;;34.76;29.31;99609.34;10334937;28;20038;-78
2022/07/16 09:55:23;;;;;;;16.70;2.38;;;;;;;35.07;29.50;99612.63;10334314;28;20398;-76
2022/07/16 10:00:24;;;;;;;6.72;1.70;;;;;;;34.92;28.79;99603.09;10333725;28;20126;-79
2022/07/16 10:05:25;;;;;;;26.20;3.00;;;;;;;35.05;29.24;99593.63;10333610;28;20133;-75
2022/07/16 10:10:26;;;;;;;19.85;2.40;;;;;;;35.16;28.88;99578.19;10334068;28;20047;-79
2022/07/16 10:15:26;;;;;;;16.63;2.78;;;;;;;35.22;29.46;99570.44;10325644;28;20116;-82
2022/07/16 10:20:34;;;;;;;11.25;2.00;;;;;;;35.56;29.45;99596.63;10330103;28;20057;-76
2022/07/16 10:25:35;;;;;;;17.00;2.63;;;;;;;35.49;28.71;99574.34;10328633;28;20577;-83
2022/07/16 10:30:36;;;;;;;24.98;3.05;;;;;;;35.45;29.14;99590.03;10331980;28;20100;-77
2022/07/16 10:35:45;;;;;;;15.05;2.53;;;;;;;34.72;29.03;99497.25;10319769;28;20066;-77
2022/07/16 10:41:05;;;;;;;9.23;2.08;;;;;;;35.30;29.72;99580.53;10328750;28;20081;-80
2022/07/16 10:46:08;;;;;;;16.70;2.47;;;;;;;35.48;29.18;99582.97;10326796;28;20057;-80
2022/07/16 10:51:20;;;;;;;15.05;2.03;;;;;;;35.58;28.63;99585.25;10329375;28;20095;-77
2022/07/16 10:56:40;;;;;;;;;;;;;;;35.90;28.76;99588.84;10330010;28;20129;-78
2022/07/16 11:01:44;;;;;;;9.45;2.17;;;;;;;35.60;29.43;99547.84;10323732;28;19929;-81
2022/07/16 11:06:49;;;;;;;15.45;2.45;;;;;;;35.65;28.73;99542.03;10361723;28;20041;-79
2022/07/16 11:11:51;;;;;;;9.48;2.55;;;;;;;35.80;28.93;99550.69;10331205;28;20409;-81
2022/07/16 11:16:52;;;;;;;21.90;2.90;;;;;;;35.64;28.63;99515.56;10330272;28;20141;-82
2022/07/16 11:22:04;;;;;;;12.88;3.22;;;;;;;35.96;28.79;99542.38;10329762;28;20121;-80
2022/07/16 11:27:05;;;;;;;12.53;2.63;;;;;;;34.92;27.92;99372.09;10332029;28;20042;-78
2022/07/16 11:32:06;;;;;;;20.70;2.83;;;;;;;36.06;28.46;99542.66;10330172;28;20510;-79
2022/07/16 11:37:07;;;;;;;18.90;2.83;;;;;;;35.37;28.23;99433.56;10335863;28;20309;-79
2022/07/16 11:42:09;;;;;;;12.00;2.00;;;;;;;36.01;27.89;99544.88;10335880;28;20034;-75
2022/07/16 11:47:11;;;;;;;10.43;2.25;;;;;;;35.89;28.36;99531.94;10329527;28;20052;-80
2022/07/16 11:52:20;;;;;;;10.65;2.40;;;;;;;36.02;28.85;99527.13;10332001;28;20517;-78
2022/07/16 11:57:22;;;;;;;9.65;2.13;;;;;;;36.10;28.58;99532.47;10331632;28;20046;-80
2022/07/16 12:02:27;;;;;;;22.03;3.07;;;;;;;35.97;27.11;99499.75;10331615;28;20074;-80
2022/07/16 12:07:29;;;;;;;9.98;2.15;;;;;;;35.50;28.10;99414.94;10332098;28;20050;-80
2022/07/16 12:12:32;;;;;;;8.98;2.65;;;;;;;35.76;27.71;99445.59;10333338;28;20092;-78
2022/07/16 12:17:38;;;;;;;14.38;3.08;;;;;;;36.19;26.73;99512.94;10330463;28;20494;-77
2022/07/16 12:22:51;;;;;;;27.08;3.20;;;;;;;36.27;27.37;99509.19;10333721;28;20516;-78
2022/07/16 12:27:55;;;;;;;14.30;2.70;;;;;;;35.85;26.80;99454.50;10331963;28;20038;-80
2022/07/16 12:32:55;;;;;;;10.32;2.90;;;;;;;36.14;27.39;99499.41;10332980;28;20379;-80
2022/07/16 12:37:56;;;;;;;13.48;3.20;;;;;;;35.67;27.63;99470.66;10332347;28;20054;-75
2022/07/16 12:42:58;;;;;;;13.65;2.90;;;;;;;35.34;27.66;99428.75;10331690;28;20045;-79
2022/07/16 12:47:59;;;;;;;;;;;;;;;36.12;27.52;99507.25;10364360;28;20035;-80
2022/07/16 12:53:00;;;;;;;8.90;2.73;;;;;;;35.49;27.54;99400.34;10326869;28;19917;-78
2022/07/16 13:03:20;;;;;;;18.77;2.80;;;;;;;36.24;26.97;99485.00;10331591;28;20085;-79
2022/07/16 13:08:21;;;;;;;16.92;2.97;;;;;;;36.25;27.25;99486.59;10331916;28;20129;-78
2022/07/16 13:13:21;;;;;;;18.30;3.33;;;;;;;36.38;26.94;99490.06;10328477;28;20042;-76
2022/07/16 13:18:22;;;;;;;19.35;3.78;;;;;;;36.26;27.55;99444.00;10330580;28;20046;-80
2022/07/16 13:23:23;;;;;;;13.18;2.95;;;;;;;36.53;26.78;99486.47;10328789;28;20030;-81
2022/07/16 13:28:24;;;;;;;16.27;2.87;;;;;;;36.43;26.90;99469.59;10327508;28;20095;-79
2022/07/16 13:33:25;;;;;;;14.85;2.88;;;;;;;35.98;27.07;99402.66;10327469;28;20535;-80
2022/07/16 13:38:27;;;;;;;12.73;2.90;;;;;;;36.36;27.27;99480.53;10331038;28;20511;-79
2022/07/16 13:43:27;;;;;;;20.10;4.03;;;;;;;36.29;27.69;99465.38;10328525;28;20507;-79
2022/07/16 13:48:29;;;;;;;19.80;3.70;;;;;;;36.15;28.31;99431.09;10327401;28;20078;-79
2022/07/16 13:53:29;;;;;;;14.98;3.05;;;;;;;35.84;27.29;99370.00;10326904;28;20121;-79
2022/07/16 13:58:30;;;;;;;18.55;3.20;;;;;;;36.37;27.40;99484.88;10327368;28;20057;-78
2022/07/16 14:03:31;;;;;;;7.78;3.03;;;;;;;36.14;27.33;99473.69;10327610;28;20648;-79
2022/07/16 14:08:33;;;;;;;11.80;3.00;;;;;;;35.97;27.46;99470.16;10325515;28;20093;-79
2022/07/16 14:13:34;;;;;;;22.63;3.40;;;;;;;35.74;28.06;99474.75;10329453;28;20042;-77
2022/07/16 14:18:35;;;;;;;15.98;3.60;;;;;;;34.93;28.18;99365.41;10328211;28;20049;-77
2022/07/16 14:23:36;;;;;;;8.00;2.97;;;;;;;35.41;28.27;99473.91;10328252;28;20125;-77
2022/07/16 14:28:37;;;;;;;13.48;3.85;;;;;;;34.82;28.11;99402.94;10329140;28;20529;-78
2022/07/16 14:33:38;;;;;;;17.13;4.03;;;;;;;35.15;28.48;99459.81;10331640;28;20069;-78
2022/07/16 14:38:39;;;;;;;19.90;4.57;;;;;;;34.70;29.47;99425.06;10327065;28;20449;-77
2022/07/16 14:43:40;;;;;;;28.73;5.10;;;;;;;34.49;29.96;99420.56;10327465;28;20093;-78
2022/07/16 14:48:41;;;;;;;28.85;5.38;;;;;;;33.92;30.84;99360.97;10323134;28;20402;-78
2022/07/16 14:53:42;;;;;;;46.20;7.10;;;;;;;33.73;30.90;99349.78;10329023;28;20047;-75
2022/07/16 14:58:42;;;;;;;20.90;7.65;;;;;;;34.35;30.78;99467.03;10328178;28;20042;-77
2022/07/16 15:03:43;;;;;;;33.55;10.88;;;;;;;34.28;31.26;99475.88;10328892;28;20042;-77
2022/07/16 15:08:44;;;;;;;48.65;16.10;;;;;;;34.08;30.74;99450.06;10331835;28;20046;-77
2022/07/16 15:13:45;;;;;;;30.35;16.65;;;;;;;34.09;30.07;99462.69;10331447;28;20132;-76
2022/07/16 15:18:46;;;;;;;40.05;20.98;;;;;;;33.54;30.08;99373.22;10331679;28;20042;-77
2022/07/16 15:23:46;;;;;;;30.17;14.93;;;;;;;34.23;30.04;99497.38;10330952;28;20510;-77
2022/07/16 15:28:47;;;;;;;28.25;10.88;;;;;;;34.15;30.26;99490.81;10330946;28;20046;-78
2022/07/16 15:33:48;;;;;;;30.80;10.23;;;;;;;34.05;30.52;99489.34;10331014;28;20038;-78
2022/07/16 15:38:50;;;;;;;30.95;12.05;;;;;;;34.00;30.52;99494.25;10332105;28;20154;-79
2022/07/16 15:43:51;;;;;;;;;;;;;;;34.16;30.35;99511.72;10331839;28;20518;-78
2022/07/16 15:48:51;;;;;;;27.33;11.85;;;;;;;33.93;30.71;99505.88;10331217;28;19913;-78
2022/07/16 15:53:52;;;;;;;35.85;17.85;;;;;;;33.89;30.97;99515.94;10331378;28;20100;-77
2022/07/16 15:58:53;;;;;;;39.38;17.35;;;;;;;33.54;30.84;99480.59;10331307;28;20503;-77
2022/07/16 16:03:54;;;;;;;44.85;15.45;;;;;;;33.56;31.37;99492.06;10331018;28;20050;-78
2022/07/16 16:08:55;;;;;;;38.15;21.88;;;;;;;33.67;31.61;99522.72;10330514;28;20042;-78
2022/07/16 16:13:56;;;;;;;48.92;25.15;;;;;;;32.79;31.98;99400.13;10327635;28;20042;-78
2022/07/16 16:18:57;;;;;;;60.63;30.85;;;;;;;33.34;32.97;99525.50;10332924;28;20053;-75
2022/07/16 16:23:57;;;;;;;46.47;18.83;;;;;;;33.06;33.16;99501.34;10335260;28;20042;-78
2022/07/16 16:28:58;;;;;;;85.38;28.80;;;;;;;32.94;33.02;99509.53;10316287;28;20208;-80
2022/07/16 16:33:59;;;;;;;38.30;12.25;;;;;;;32.92;32.84;99522.81;10337283;28;20057;-76
2022/07/16 16:39:00;;;;;;;32.60;9.10;;;;;;;32.71;33.15;99518.13;10337425;28;20057;-77
2022/07/16 16:44:01;;;;;;;36.63;7.18;;;;;;;32.65;33.30;99524.97;10336916;28;20046;-79
2022/07/16 16:49:03;;;;;;;35.00;8.02;;;;;;;32.42;34.03;99527.22;10337359;28;20043;-76
2022/07/16 16:54:04;;;;;;;40.50;9.25;;;;;;;32.02;34.28;99488.34;10336862;28;20097;-75
2022/07/16 16:59:04;;;;;;;34.30;7.82;;;;;;;31.90;35.03;99491.00;10336214;28;20410;-75
2022/07/16 17:04:06;;;;;;;26.38;6.93;;;;;;;32.08;35.78;99552.97;10335755;28;20042;-82
2022/07/16 17:09:10;;;;;;;35.38;5.85;;;;;;;31.49;36.88;99484.22;10336500;28;20042;-77
2022/07/16 17:14:11;;;;;;;26.33;5.30;;;;;;;31.18;37.08;99443.28;10334545;28;20057;-79
2022/07/16 17:19:12;;;;;;;39.95;7.15;;;;;;;31.43;37.44;99515.72;10336114;28;20045;-83
2022/07/16 17:24:13;;;;;;;38.53;4.85;;;;;;;30.82;37.90;99445.31;10335738;28;20507;-73
2022/07/16 17:29:14;;;;;;;24.90;4.47;;;;;;;31.42;38.65;99572.53;10367026;28;20038;-83
2022/07/16 17:34:15;;;;;;;27.83;4.60;;;;;;;31.20;39.09;99562.53;10335368;28;20454;-77
2022/07/16 17:39:16;;;;;;;21.38;3.40;;;;;;;30.57;39.15;99474.28;10328279;28;20151;-77
2022/07/16 17:44:16;;;;;;;25.20;3.28;;;;;;;30.10;39.69;99429.47;10334428;28;20046;-78
2022/07/16 17:54:37;;;;;;;18.98;3.05;;;;;;;30.23;40.45;99491.53;10328650;28;20403;-77
2022/07/16 17:59:37;;;;;;;13.38;2.95;;;;;;;30.00;40.96;99486.16;10329602;28;20040;-77
2022/07/16 18:04:38;;;;;;;15.50;3.42;;;;;;;29.97;41.34;99502.38;10328853;28;20040;-77
2022/07/16 18:09:39;;;;;;;20.70;3.50;;;;;;;30.52;41.48;99610.72;10328267;28;20042;-77
2022/07/16 18:14:40;;;;;;;29.67;3.38;;;;;;;30.26;42.40;99595.00;10329163;28;20046;-77
2022/07/16 18:19:41;;;;;;;14.43;2.78;;;;;;;29.63;42.60;99528.50;10327158;28;20042;-77
2022/07/16 18:24:42;;;;;;;19.55;2.85;;;;;;;30.00;42.73;99605.81;10329250;28;20039;-78
2022/07/16 18:29:43;;;;;;;9.30;3.08;;;;;;;29.97;43.11;99628.34;10322008;28;20038;-77
2022/07/16 18:34:44;;;;;;;14.48;3.20;;;;;;;29.79;43.57;99625.50;10331150;28;20046;-77
2022/07/16 18:39:46;;;;;;;16.42;2.72;;;;;;;29.61;44.16;99626.50;10332922;28;20034;-76
2022/07/16 18:44:48;;;;;;;17.30;2.80;;;;;;;28.35;44.32;99438.59;10332415;28;20058;-76
2022/07/16 18:49:49;;;;;;;16.90;2.75;;;;;;;29.65;44.56;99656.84;10332701;28;20564;-76
2022/07/16 18:54:49;;;;;;;19.05;3.00;;;;;;;29.39;44.90;99642.94;10331975;28;20046;-76
2022/07/16 18:59:50;;;;;;;18.20;2.83;;;;;;;29.43;45.24;99682.22;10331830;28;20090;-77
2022/07/16 19:04:51;;;;;;;25.20;3.65;;;;;;;28.67;46.12;99587.13;10331636;28;20076;-76
2022/07/16 19:09:52;;;;;;;22.63;2.95;;;;;;;28.49;46.06;99574.41;10331977;28;20034;-76
2022/07/16 19:14:52;;;;;;;17.75;2.63;;;;;;;29.17;46.09;99699.25;10331938;28;20038;-76
2022/07/16 19:19:53;;;;;;;16.98;2.72;;;;;;;28.93;46.44;99679.50;10331245;28;20035;-75
2022/07/16 19:24:54;;;;;;;15.07;2.78;;;;;;;29.00;46.48;99694.38;10328656;28;20057;-76
2022/07/16 19:29:56;;;;;;;15.70;2.78;;;;;;;28.60;46.79;99664.06;10328274;28;20059;-74
2022/07/16 19:34:57;;;;;;;12.75;2.90;;;;;;;28.64;47.10;99681.44;10329132;28;20062;-76
2022/07/16 19:39:58;;;;;;;12.88;2.80;;;;;;;28.70;47.39;99711.41;10331760;28;20487;-75
2022/07/16 19:44:59;;;;;;;14.07;2.95;;;;;;;28.71;47.67;99702.91;10317543;28;20069;-74
2022/07/16 19:50:02;;;;;;;15.20;2.42;;;;;;;27.09;47.92;99462.63;10314887;28;20453;-76
2022/07/16 20:00:22;;;;;;;13.15;2.78;;;;;;;28.61;48.45;99708.59;10338910;28;20034;-75
2022/07/16 20:05:23;;;;;;;11.27;2.30;;;;;;;27.18;48.61;99492.78;10338936;28;20518;-75
2022/07/16 20:10:24;;;;;;;10.43;2.30;;;;;;;28.54;48.96;99744.50;10338162;28;20045;-75
2022/07/16 20:15:25;;;;;;;14.45;2.88;;;;;;;28.49;49.01;99716.47;10335442;28;20506;-71
2022/07/16 20:20:26;;;;;;;13.07;3.28;;;;;;;28.33;49.23;99683.94;10313510;28;20062;-71
2022/07/16 20:25:27;;;;;;;15.73;3.22;;;;;;;28.54;49.44;99747.25;10337028;28;20039;-74
2022/07/16 20:30:29;;;;;;;18.13;2.50;;;;;;;28.41;50.37;99737.09;10338645;28;20038;-74
2022/07/16 20:35:31;;;;;;;10.38;2.75;;;;;;;28.29;50.66;99745.75;10337124;28;20148;-73
2022/07/16 20:40:32;;;;;;;10.27;2.27;;;;;;;27.63;51.03;99684.84;10338263;28;20053;-73
2022/07/16 20:45:33;;;;;;;12.13;2.78;;;;;;;27.88;51.85;99760.09;10338118;28;20053;-72
2022/07/16 20:50:34;;;;;;;9.82;2.13;;;;;;;27.91;52.56;99780.50;10337042;28;20402;-72
2022/07/16 20:55:34;;;;;;;9.93;2.58;;;;;;;27.67;52.81;99758.72;10368705;28;20042;-73
2022/07/16 21:00:35;;;;;;;12.07;2.47;;;;;;;27.66;52.97;99768.84;10336883;28;20042;-73
2022/07/16 21:05:36;;;;;;;33.17;4.45;;;;;;;26.98;53.15;99690.13;10308983;28;20125;-73
2022/07/16 21:10:37;;;;;;;12.52;2.38;;;;;;;27.43;53.54;99803.28;10295990;28;20070;-72
2022/07/16 21:15:38;;;;;;;14.68;2.85;;;;;;;27.33;54.20;99800.69;10296265;28;20074;-73
2022/07/16 21:20:39;;;;;;;8.60;2.47;;;;;;;27.08;55.20;99797.13;10295318;28;20498;-73
2022/07/16 21:25:40;;;;;;;19.42;3.10;;;;;;;27.06;56.63;99790.34;10295884;28;20154;-73
2022/07/16 21:30:41;;;;;;;8.85;2.38;;;;;;;26.84;56.76;99779.97;10295323;28;20141;-72
2022/07/16 21:35:42;;;;;;;24.55;3.45;;;;;;;26.25;57.28;99678.44;10294589;28;20058;-73
2022/07/16 21:40:42;;;;;;;15.32;3.53;;;;;;;26.26;57.23;99628.31;10295600;28;20046;-73
2022/07/16 21:45:44;;;;;;;10.25;1.92;;;;;;;26.93;57.06;99750.19;10294971;28;20046;-73
2022/07/16 21:50:44;;;;;;;17.00;2.85;;;;;;;26.91;57.32;99799.50;10294323;28;20070;-73
2022/07/16 21:55:45;;;;;;;17.90;3.20;;;;;;;26.27;57.20;99691.75;10293934;28;20121;-72
2022/07/16 22:00:46;;;;;;;14.60;3.45;;;;;;;26.82;57.74;99796.59;10295086;28;20490;-73
2022/07/16 22:05:47;;;;;;;15.45;3.22;;;;;;;26.75;58.15;99804.31;10294250;28;20047;-73
2022/07/16 22:10:48;;;;;;;14.02;3.20;;;;;;;26.61;58.47;99825.16;10294580;28;20078;-73
2022/07/16 22:15:49;;;;;;;13.45;2.97;;;;;;;26.31;58.74;99815.31;10292580;28;20129;-72
2022/07/16 22:20:52;;;;;;;18.65;3.20;;;;;;;26.35;58.83;99847.13;10293923;28;20121;-72
2022/07/16 22:25:56;;;;;;;13.52;2.90;;;;;;;26.33;58.70;99843.91;10293399;28;20046;-72
2022/07/16 22:30:56;;;;;;;17.10;3.30;;;;;;;26.35;59.03;99833.50;10324557;28;20081;-72
2022/07/16 22:35:57;;;;;;;21.17;3.60;;;;;;;25.73;58.62;99726.22;10292691;28;20070;-73
2022/07/16 22:40:58;;;;;;;17.92;2.63;;;;;;;26.39;58.65;99837.31;10292638;28;20047;-72
2022/07/16 22:45:59;;;;;;;8.65;2.67;;;;;;;25.63;58.17;99734.44;10292101;28;20053;-72
2022/07/16 22:51:00;;;;;;;16.48;2.90;;;;;;;26.29;58.61;99826.50;10292622;28;20457;-72
2022/07/16 22:56:00;;;;;;;12.80;2.47;;;;;;;25.89;58.42;99754.94;10292175;28;20097;-73
2022/07/16 23:01:02;;;;;;;24.63;5.57;;;;;;;26.24;59.26;99814.84;10291706;28;20047;-72
2022/07/16 23:06:03;;;;;;;17.98;3.20;;;;;;;25.49;58.44;99683.41;10292372;28;20186;-73
2022/07/16 23:11:04;;;;;;;14.10;2.95;;;;;;;26.25;59.18;99811.84;10292025;28;20046;-73
2022/07/16 23:16:05;;;;;;;9.57;3.30;;;;;;;25.65;59.60;99732.25;10291924;28;20043;-72
2022/07/16 23:21:06;;;;;;;26.80;4.07;;;;;;;26.08;60.04;99789.63;10291910;28;20479;-71
2022/07/16 23:26:07;;;;;;;19.17;3.17;;;;;;;25.61;59.90;99702.09;10292127;28;20038;-73
2022/07/16 23:31:07;;;;;;;15.90;2.97;;;;;;;26.22;58.86;99798.78;10304250;28;20075;-71
2022/07/16 23:36:08;;;;;;;18.70;3.03;;;;;;;26.18;57.85;99798.56;10304372;28;20066;-70